Time;durP1;ratioP1;P1;durP2;ratioP2;P2;SDS_P1;SDS_P2;PMS_P1;PMS_P2;Temp;Humidity;BMP_temperature;BMP_pressure;BME280_temperature;BME280_humidity;BME280_pressure;Samples;Min_cycle;Max_cycle;Signal;HPM_P1;HPM_P2
2021/08/22 00:01:16;;;;;;;17.50;6.80;;;;;;;;;;5083738;28;20587;-83
2021/08/22 00:03:44;;;;;;;13.40;6.28;;;;;;;;;;5091328;28;20301;-84
2021/08/22 00:06:11;;;;;;;15.97;6.80;;;;;;;;;;5084643;28;20293;-83
2021/08/22 00:08:39;;;;;;;18.58;7.10;;;;;;;;;;5091098;28;20559;-84
2021/08/22 00:11:08;;;;;;;16.30;6.45;;;;;;;;;;5091549;28;20289;-84
2021/08/22 00:13:35;;;;;;;15.75;7.03;;;;;;;;;;5089298;28;20306;-83
2021/08/22 00:16:03;;;;;;;18.02;6.90;;;;;;;;;;5071660;28;20274;-83
2021/08/22 00:18:30;;;;;;;19.20;6.60;;;;;;;;;;5071672;28;20229;-83
2021/08/22 00:20:58;;;;;;;14.70;6.57;;;;;;;;;;5074453;28;20293;-84
2021/08/22 00:23:25;;;;;;;17.45;6.80;;;;;;;;;;5071666;28;20254;-83
2021/08/22 00:25:52;;;;;;;16.60;6.95;;;;;;;;;;5073428;28;20285;-83
2021/08/22 00:28:22;;;;;;;17.40;6.53;;;;;;;;;;5090855;28;20234;-84
2021/08/22 00:30:49;;;;;;;14.27;6.87;;;;;;;;;;5077409;28;20235;-83
2021/08/22 00:33:16;;;;;;;15.40;6.82;;;;;;;;;;5089271;28;20278;-84
2021/08/22 00:35:43;;;;;;;14.48;6.43;;;;;;;;;;5091789;28;20225;-85
2021/08/22 00:38:11;;;;;;;17.03;6.37;;;;;;;;;;5089603;28;20729;-85
2021/08/22 00:40:38;;;;;;;18.87;6.23;;;;;;;;;;5071580;28;20282;-85
2021/08/22 00:43:07;;;;;;;18.00;6.63;;;;;;;;;;5071345;28;20351;-85
2021/08/22 00:45:37;;;;;;;12.13;6.07;;;;;;;;;;5071909;28;20252;-85
2021/08/22 00:48:05;;;;;;;13.38;5.93;;;;;;;;;;5075043;28;20310;-86
2021/08/22 00:50:33;;;;;;;14.27;6.20;;;;;;;;;;5071156;28;20624;-84
2021/08/22 00:53:01;;;;;;;15.37;7.00;;;;;;;;;;5071318;28;20675;-85
2021/08/22 00:55:28;;;;;;;12.23;6.37;;;;;;;;;;5071530;28;20246;-85
2021/08/22 00:57:56;;;;;;;13.63;6.90;;;;;;;;;;5071560;28;20219;-85
2021/08/22 01:00:23;;;;;;;15.13;6.63;;;;;;;;;;5084993;28;20197;-85
2021/08/22 01:02:54;;;;;;;13.47;6.90;;;;;;;;;;5095392;28;20749;-85
2021/08/22 01:05:26;;;;;;;15.63;6.57;;;;;;;;;;5094382;28;20233;-85
2021/08/22 01:07:57;;;;;;;14.47;6.53;;;;;;;;;;5095069;28;20281;-85
2021/08/22 01:10:26;;;;;;;13.77;7.00;;;;;;;;;;5094240;28;20229;-85
2021/08/22 01:12:57;;;;;;;15.60;7.43;;;;;;;;;;5094889;28;20213;-85
2021/08/22 01:15:24;;;;;;;16.40;6.93;;;;;;;;;;5093882;28;20281;-85
2021/08/22 01:17:54;;;;;;;15.53;6.77;;;;;;;;;;5095352;28;20285;-85
2021/08/22 01:20:25;;;;;;;16.93;6.90;;;;;;;;;;5094847;28;20681;-85
2021/08/22 01:22:53;;;;;;;14.20;7.10;;;;;;;;;;5094817;28;20210;-84
2021/08/22 01:25:21;;;;;;;18.03;6.63;;;;;;;;;;5094867;28;20289;-85
2021/08/22 01:27:48;;;;;;;16.90;7.10;;;;;;;;;;5091891;28;20804;-85
2021/08/22 01:30:17;;;;;;;14.50;7.03;;;;;;;;;;5093921;28;20285;-85
2021/08/22 01:32:46;;;;;;;14.43;6.60;;;;;;;;;;5093535;28;20729;-85
2021/08/22 01:35:17;;;;;;;17.47;6.57;;;;;;;;;;5074505;28;20282;-85
2021/08/22 01:37:45;;;;;;;14.80;6.57;;;;;;;;;;5075270;28;20659;-85
2021/08/22 01:40:13;;;;;;;14.83;6.97;;;;;;;;;;5074339;28;20229;-85
2021/08/22 01:42:46;;;;;;;13.53;6.67;;;;;;;;;;5086590;28;20233;-85
2021/08/22 01:45:15;;;;;;;15.17;6.73;;;;;;;;;;5091739;28;20289;-85
2021/08/22 01:47:43;;;;;;;14.27;6.23;;;;;;;;;;5076722;28;20278;-85
2021/08/22 01:50:13;;;;;;;15.13;6.37;;;;;;;;;;5094790;28;20284;-85
2021/08/22 01:52:41;;;;;;;12.83;6.30;;;;;;;;;;5094497;28;20206;-85
2021/08/22 01:55:09;;;;;;;14.53;5.80;;;;;;;;;;5094052;28;20348;-85
2021/08/22 01:57:37;;;;;;;13.30;5.93;;;;;;;;;;5094684;28;20226;-84
2021/08/22 02:00:05;;;;;;;14.67;6.33;;;;;;;;;;5087095;28;20195;-85
2021/08/22 02:02:32;;;;;;;12.47;6.13;;;;;;;;;;5091588;28;20294;-85
2021/08/22 02:05:00;;;;;;;13.77;6.37;;;;;;;;;;5089156;28;20252;-85
2021/08/22 02:07:31;;;;;;;13.87;6.80;;;;;;;;;;5094201;28;20226;-85
2021/08/22 02:10:02;;;;;;;13.00;6.13;;;;;;;;;;5092264;28;20251;-85
2021/08/22 02:12:29;;;;;;;20.67;7.27;;;;;;;;;;5075217;28;20612;-85
2021/08/22 02:15:01;;;;;;;12.33;7.00;;;;;;;;;;5094042;28;20612;-85
2021/08/22 02:17:31;;;;;;;19.43;6.90;;;;;;;;;;5075287;28;20290;-85
2021/08/22 02:20:00;;;;;;;15.07;6.43;;;;;;;;;;5075539;28;20219;-85
2021/08/22 02:22:30;;;;;;;11.27;6.37;;;;;;;;;;5093042;28;20202;-85
2021/08/22 02:24:58;;;;;;;13.37;6.20;;;;;;;;;;5092816;28;20305;-85
2021/08/22 02:27:25;;;;;;;18.23;6.77;;;;;;;;;;5094149;28;20201;-85
2021/08/22 02:29:52;;;;;;;14.00;6.20;;;;;;;;;;5092749;28;20282;-85
2021/08/22 02:32:20;;;;;;;14.67;6.70;;;;;;;;;;5078689;28;20692;-85
2021/08/22 02:34:47;;;;;;;16.37;6.90;;;;;;;;;;5073331;28;20226;-85
2021/08/22 02:37:15;;;;;;;13.93;6.03;;;;;;;;;;5073153;28;20234;-85
2021/08/22 02:39:43;;;;;;;16.90;6.63;;;;;;;;;;5073270;28;20281;-85
2021/08/22 02:42:11;;;;;;;14.53;6.80;;;;;;;;;;5086332;28;20682;-85
2021/08/22 02:44:38;;;;;;;11.87;6.07;;;;;;;;;;5093482;28;20664;-85
2021/08/22 02:47:05;;;;;;;11.93;5.47;;;;;;;;;;5093659;28;20233;-85
2021/08/22 02:49:33;;;;;;;12.20;5.73;;;;;;;;;;5093593;28;20285;-85
2021/08/22 02:52:00;;;;;;;9.43;5.23;;;;;;;;;;5080866;28;20265;-85
2021/08/22 02:54:27;;;;;;;12.50;5.67;;;;;;;;;;5093857;28;20237;-85
2021/08/22 02:56:56;;;;;;;12.63;6.00;;;;;;;;;;5093163;28;20269;-84
2021/08/22 02:59:23;;;;;;;13.17;4.80;;;;;;;;;;5092116;28;20693;-85
2021/08/22 03:01:51;;;;;;;12.13;4.90;;;;;;;;;;5085755;28;20862;-84
2021/08/22 03:04:18;;;;;;;9.27;5.40;;;;;;;;;;5093060;28;20261;-85
2021/08/22 03:06:45;;;;;;;13.07;5.77;;;;;;;;;;5093198;28;20273;-85
2021/08/22 03:09:13;;;;;;;10.20;5.40;;;;;;;;;;5092420;28;20281;-84
2021/08/22 03:11:40;;;;;;;12.23;5.57;;;;;;;;;;5091510;28;20206;-85
2021/08/22 03:16:50;;;;;;;9.17;5.40;;;;;;;;;;5085274;28;20214;-85
2021/08/22 03:19:17;;;;;;;12.40;6.37;;;;;;;;;;5072862;28;20195;-85
2021/08/22 03:21:45;;;;;;;10.00;6.37;;;;;;;;;;5081879;28;20277;-85
2021/08/22 03:24:13;;;;;;;12.17;7.50;;;;;;;;;;5092978;28;20267;-85
2021/08/22 03:26:42;;;;;;;12.53;7.20;;;;;;;;;;5084105;28;20216;-85
2021/08/22 03:29:13;;;;;;;14.73;7.50;;;;;;;;;;5092733;28;20302;-84
2021/08/22 03:31:42;;;;;;;15.43;8.63;;;;;;;;;;5083516;28;20232;-85
2021/08/22 03:34:10;;;;;;;16.73;8.60;;;;;;;;;;5076039;28;20243;-84
2021/08/22 03:36:38;;;;;;;14.33;8.27;;;;;;;;;;5072369;28;20282;-85
2021/08/22 03:39:07;;;;;;;17.73;9.57;;;;;;;;;;5072487;28;20289;-85
2021/08/22 03:41:36;;;;;;;15.07;9.20;;;;;;;;;;5083451;28;20285;-85
2021/08/22 03:44:08;;;;;;;16.83;9.13;;;;;;;;;;5091631;28;20222;-85
2021/08/22 03:46:38;;;;;;;16.90;8.93;;;;;;;;;;5092562;28;20205;-85
2021/08/22 03:49:06;;;;;;;19.73;8.80;;;;;;;;;;5092647;28;20293;-85
2021/08/22 03:51:34;;;;;;;17.30;8.87;;;;;;;;;;5071907;28;20286;-85
2021/08/22 03:54:02;;;;;;;16.33;8.57;;;;;;;;;;5072186;28;20281;-85
2021/08/22 03:56:30;;;;;;;15.67;9.13;;;;;;;;;;5071448;28;20656;-84
2021/08/22 03:58:58;;;;;;;15.90;9.17;;;;;;;;;;5079922;28;20230;-84
2021/08/22 04:01:26;;;;;;;19.30;9.87;;;;;;;;;;5077254;28;20257;-85
2021/08/22 04:03:56;;;;;;;14.93;9.60;;;13.70;99.90;;;;;;5079374;28;20230;-85
2021/08/22 04:06:25;;;;;;;18.37;9.33;;;13.80;99.90;;;;;;5071742;28;20194;-84
2021/08/22 04:08:52;;;;;;;19.97;9.67;;;13.70;99.90;;;;;;5080308;28;20601;-85
2021/08/22 04:11:19;;;;;;;20.37;9.77;;;13.70;99.90;;;;;;5079611;28;20267;-85
2021/08/22 04:13:46;;;;;;;17.63;10.17;;;13.70;99.90;;;;;;5092068;28;20230;-85
2021/08/22 04:16:14;;;;;;;16.57;9.67;;;13.60;99.90;;;;;;5092565;28;20282;-85
2021/08/22 04:18:41;;;;;;;15.63;9.70;;;13.60;99.90;;;;;;5073103;28;20226;-84
2021/08/22 04:21:09;;;;;;;19.33;9.43;;;13.60;99.90;;;;;;5092536;28;20234;-85
2021/08/22 04:23:38;;;;;;;15.30;9.07;;;13.50;99.90;;;;;;5092001;28;20633;-84
2021/08/22 04:26:05;;;;;;;18.83;9.80;;;13.50;99.90;;;;;;5089196;28;20261;-85
2021/08/22 04:28:32;;;;;;;18.30;10.03;;;13.50;99.90;;;;;;5070766;28;20237;-85
2021/08/22 04:30:59;;;;;;;18.53;9.23;;;13.40;99.90;;;;;;5071951;28;20205;-85
2021/08/22 04:33:28;;;;;;;17.70;9.70;;;13.40;99.90;;;;;;5073328;28;20237;-85
2021/08/22 04:35:55;;;;;;;17.67;9.50;;;13.30;99.90;;;;;;5088369;28;20205;-85
2021/08/22 04:38:24;;;;;;;15.00;9.00;;;13.30;99.90;;;;;;5096678;28;20234;-85
2021/08/22 04:40:51;;;;;;;14.60;8.77;;;13.20;99.90;;;;;;5086219;28;20306;-85
2021/08/22 04:43:18;;;;;;;17.30;9.30;;;13.30;99.90;;;;;;5096017;28;20284;-85
2021/08/22 04:45:45;;;;;;;14.23;9.07;;;13.20;99.90;;;;;;5071432;28;20309;-85
2021/08/22 04:48:13;;;;;;;13.73;9.00;;;13.20;99.90;;;;;;5086647;28;20226;-85
2021/08/22 04:50:40;;;;;;;13.83;8.93;;;13.20;99.90;;;;;;5091199;28;20233;-85
2021/08/22 04:53:07;;;;;;;16.30;9.97;;;13.20;99.90;;;;;;5095188;28;20230;-85
2021/08/22 04:55:35;;;;;;;16.97;9.37;;;13.20;99.90;;;;;;5095949;28;20226;-85
2021/08/22 04:58:03;;;;;;;16.10;8.87;;;13.20;99.90;;;;;;5095586;28;20199;-85
2021/08/22 05:00:32;;;;;;;14.77;9.40;;;13.20;99.90;;;;;;5095897;28;20662;-85
2021/08/22 05:03:09;;;;;;;19.50;9.80;;;13.20;99.90;;;;;;5092472;28;20257;-84
2021/08/22 05:05:36;;;;;;;17.20;9.20;;;13.30;99.90;;;;;;5095495;28;20307;-85
2021/08/22 05:08:05;;;;;;;19.23;8.93;;;13.30;99.90;;;;;;5095230;28;20248;-84
2021/08/22 05:10:32;;;;;;;25.97;9.50;;;13.40;99.90;;;;;;5092907;28;20660;-85
2021/08/22 05:13:00;;;;;;;14.73;8.60;;;13.40;99.90;;;;;;5075569;28;20294;-85
2021/08/22 05:15:27;;;;;;;14.43;8.97;;;13.50;99.90;;;;;;5080876;28;20195;-85
2021/08/22 05:17:54;;;;;;;18.57;8.77;;;13.50;99.90;;;;;;5095306;28;20218;-85
2021/08/22 05:20:22;;;;;;;22.90;9.30;;;13.50;99.90;;;;;;5094793;28;20281;-85
2021/08/22 05:22:49;;;;;;;13.53;8.23;;;13.60;99.90;;;;;;5095116;28;20289;-85
2021/08/22 05:25:16;;;;;;;17.80;9.20;;;13.60;99.90;;;;;;5094986;28;20317;-85
2021/08/22 05:27:42;;;;;;;15.43;8.50;;;13.60;99.90;;;;;;5094959;28;20582;-85
2021/08/22 05:30:12;;;;;;;19.87;8.87;;;13.60;99.90;;;;;;5089111;28;20249;-84
2021/08/22 05:32:39;;;;;;;12.60;8.27;;;13.60;99.90;;;;;;5094245;28;20290;-85
2021/08/22 05:35:06;;;;;;;23.33;8.30;;;13.70;99.90;;;;;;5095168;28;20377;-85
2021/08/22 05:37:33;;;;;;;13.37;8.17;;;13.60;99.90;;;;;;5095410;28;20285;-84
2021/08/22 05:40:00;;;;;;;15.27;8.57;;;13.70;99.90;;;;;;5076628;28;20280;-84
2021/08/22 05:42:28;;;;;;;13.93;9.20;;;13.70;99.90;;;;;;5074494;28;20344;-85
2021/08/22 05:44:54;;;;;;;13.60;8.70;;;13.70;99.90;;;;;;5088937;28;20253;-85
2021/08/22 05:47:23;;;;;;;15.67;8.83;;;13.70;99.90;;;;;;5092789;28;20621;-85
2021/08/22 05:49:50;;;;;;;17.97;9.27;;;13.80;99.90;;;;;;5093948;28;20226;-85
2021/08/22 05:52:17;;;;;;;15.67;9.70;;;13.80;99.90;;;;;;5094906;28;20238;-85
2021/08/22 05:54:44;;;;;;;17.13;9.30;;;13.90;99.90;;;;;;5094882;28;20225;-85
2021/08/22 05:57:11;;;;;;;16.07;9.37;;;14.00;99.90;;;;;;5093794;28;20639;-85
2021/08/22 05:59:38;;;;;;;18.53;9.03;;;14.20;99.90;;;;;;5094436;28;20222;-85
2021/08/22 06:02:06;;;;;;;15.83;8.97;;;14.40;99.90;;;;;;5081542;28;20310;-85
2021/08/22 06:04:34;;;;;;;13.33;8.17;;;14.60;99.90;;;;;;5084037;28;20285;-85
2021/08/22 06:07:01;;;;;;;14.13;7.97;;;14.70;99.90;;;;;;5083180;28;20290;-85
2021/08/22 06:09:30;;;;;;;12.50;7.67;;;14.80;99.90;;;;;;5094433;28;20233;-85
2021/08/22 06:11:57;;;;;;;12.07;7.50;;;15.00;99.90;;;;;;5094646;28;20213;-85
2021/08/22 06:14:24;;;;;;;13.03;7.87;;;15.10;99.90;;;;;;5093665;28;20221;-85
2021/08/22 06:16:51;;;;;;;10.90;7.17;;;15.10;99.90;;;;;;5094235;28;20229;-85
2021/08/22 06:19:18;;;;;;;11.87;6.37;;;15.20;99.90;;;;;;5081913;28;20336;-85
2021/08/22 06:21:46;;;;;;;13.65;6.53;;;15.60;99.90;;;;;;5074159;28;20621;-85
2021/08/22 06:24:13;;;;;;;9.37;6.00;;;15.70;99.90;;;;;;5086074;28;20650;-85
2021/08/22 06:26:40;;;;;;;11.57;5.90;;;15.60;99.90;;;;;;5094165;28;20339;-85
2021/08/22 06:29:06;;;;;;;10.57;6.23;;;15.80;99.90;;;;;;5094031;28;20282;-85
2021/08/22 06:31:35;;;;;;;9.57;5.97;;;;;;;;;;5093981;28;20285;-85
2021/08/22 06:34:06;;;;;;;10.02;5.78;;;;;;;;;;5093889;28;20286;-85
2021/08/22 06:36:34;;;;;;;8.13;5.80;;;;;;;;;;5094436;28;20255;-86
2021/08/22 06:39:04;;;;;;;10.50;5.63;;;;;;;;;;5094534;28;20274;-85
2021/08/22 06:41:33;;;;;;;9.32;5.88;;;;;;;;;;5082124;28;20226;-85
2021/08/22 06:44:02;;;;;;;10.45;6.10;;;;;;;;;;5094006;28;20198;-85
2021/08/22 06:46:31;;;;;;;11.07;5.80;;;;;;;;;;5093988;28;20634;-85
2021/08/22 06:49:00;;;;;;;8.57;5.25;;;;;;;;;;5093500;28;20289;-85
2021/08/22 06:51:28;;;;;;;12.68;5.65;;;;;;;;;;5080712;28;20581;-85
2021/08/22 06:53:56;;;;;;;7.70;5.30;;;;;;;;;;5073501;28;20274;-85
2021/08/22 06:56:26;;;;;;;8.63;5.60;;;;;;;;;;5073031;28;20254;-85
2021/08/22 06:58:55;;;;;;;10.68;5.22;;;;;;;;;;5092915;28;20198;-85
2021/08/22 07:01:25;;;;;;;8.10;4.88;;;;;;;;;;5085398;28;20289;-86
2021/08/22 07:03:53;;;;;;;10.52;5.82;;;;;;;;;;5093610;28;20674;-85
2021/08/22 07:06:22;;;;;;;6.38;4.68;;;;;;;;;;5093770;28;20428;-86
2021/08/22 07:08:50;;;;;;;10.88;5.70;;;;;;;;;;5091905;28;20244;-85
2021/08/22 07:11:20;;;;;;;9.30;4.85;;;;;;;;;;5093454;28;20244;-85
2021/08/22 07:13:51;;;;;;;7.88;5.05;;;;;;;;;;5090424;28;20248;-85
2021/08/22 07:16:20;;;;;;;9.38;4.80;;;;;;;;;;5077242;28;20194;-86
2021/08/22 07:18:49;;;;;;;8.15;5.40;;;;;;;;;;5073228;28;20286;-86
2021/08/22 07:21:18;;;;;;;8.32;4.65;;;;;;;;;;5072865;28;20231;-86
2021/08/22 07:23:47;;;;;;;6.97;5.10;;;;;;;;;;5072855;28;20296;-86
2021/08/22 07:26:16;;;;;;;10.95;5.70;;;;;;;;;;5077364;28;20259;-87
2021/08/22 07:31:31;;;;;;;6.80;4.63;;;;;;;;;;5080124;28;20199;-86
2021/08/22 07:34:00;;;;;;;7.10;4.47;;;;;;;;;;5077710;28;20195;-87
2021/08/22 07:36:29;;;;;;;9.23;5.25;;;;;;;;;;5076407;28;20586;-87
2021/08/22 07:41:42;;;;;;;10.50;4.30;;;;;;;;;;5078741;28;20678;-90
2021/08/22 07:47:05;;;;;;;4.72;3.35;;;;;;;;;;5081672;28;20246;-89
2021/08/22 07:49:36;;;;;;;5.70;3.22;;;;;;;;;;5092411;28;20302;-88
2021/08/22 07:52:22;;;;;;;8.18;3.35;;;;;;;;;;5079004;28;20203;-90
2021/08/22 07:55:04;;;;;;;4.68;3.42;;;;;;;;;;5081430;28;20681;-89
2021/08/22 07:57:35;;;;;;;6.65;3.30;;;21.60;99.90;;;;;;5078326;28;20565;-90
2021/08/22 08:00:06;;;;;;;4.70;3.00;;;;;;;;;;5072979;28;20621;-85
2021/08/22 08:02:39;;;;;;;6.68;2.88;;;;;;;;;;5073411;28;20250;-85
2021/08/22 08:05:14;;;;;;;4.45;3.00;;;;;;;;;;5085004;28;20246;-86
2021/08/22 08:07:44;;;;;;;3.60;2.70;;;;;;;;;;5086985;28;20658;-85
2021/08/22 08:10:17;;;;;;;5.50;2.78;;;;;;;;;;5084707;28;20226;-85
2021/08/22 08:12:48;;;;;;;5.05;2.78;;;;;;;;;;5082043;28;20241;-84
2021/08/22 08:15:18;;;;;;;4.70;2.60;;;;;;;;;;5077774;28;20658;-85
2021/08/22 08:17:50;;;;;;;4.53;2.60;;;;;;;;;;5079011;28;20681;-84
2021/08/22 08:20:20;;;;;;;5.85;2.15;;;;;;;;;;5093255;28;20624;-84
2021/08/22 08:22:51;;;;;;;5.13;2.63;;;;;;;;;;5090069;28;20195;-85
2021/08/22 08:25:21;;;;;;;6.25;2.60;;;;;;;;;;5088385;28;20859;-85
2021/08/22 08:27:51;;;;;;;5.65;2.60;;;;;;;;;;5076751;28;20655;-85
2021/08/22 08:30:23;;;;;;;3.70;2.35;;;;;;;;;;5083515;28;20222;-82
2021/08/22 08:32:55;;;;;;;3.65;2.30;;;;;;;;;;5080604;28;20238;-84
2021/08/22 08:35:26;;;;;;;4.25;2.22;;;;;;;;;;5086333;28;20634;-84
2021/08/22 08:37:57;;;;;;;7.07;2.58;;;;;;;;;;5077369;28;20219;-85
2021/08/22 08:40:27;;;;;;;5.13;2.10;;;;;;;;;;5081364;28;20199;-85
2021/08/22 08:42:57;;;;;;;2.67;1.77;;;;;;;;;;5085604;28;20281;-86
2021/08/22 08:45:31;;;;;;;3.95;2.35;;;;;;;;;;5081008;28;20225;-85
2021/08/22 08:48:04;;;;;;;3.63;2.03;;;;;;;;;;5085893;28;20261;-85
2021/08/22 08:50:37;;;;;;;5.28;1.92;;;;;;;;;;5084656;28;20199;-84
2021/08/22 08:53:10;;;;;;;5.25;2.28;;;;;;;;;;5073621;28;20263;-84
2021/08/22 08:55:40;;;;;;;4.53;2.00;;;;;;;;;;5088552;28;20261;-84
2021/08/22 08:58:10;;;;;;;5.65;1.90;;;;;;;;;;5081809;28;20230;-84
2021/08/22 09:00:41;;;;;;;3.15;1.80;;;23.50;99.90;;;;;;5081007;28;20311;-84
2021/08/22 09:03:13;;;;;;;2.42;1.80;;;;;;;;;;5078886;28;20214;-84
2021/08/22 09:06:01;;;;;;;4.82;1.77;;;;;;;;;;5091875;28;20199;-84
2021/08/22 09:08:44;;;;;;;5.53;1.92;;;;;;;;;;5091633;28;20305;-85
2021/08/22 09:11:28;;;;;;;4.50;1.70;;;;;;;;;;5093229;28;20678;-83
2021/08/22 09:14:15;;;;;;;2.83;1.60;;;;;;;;;;5075562;28;20198;-84
2021/08/22 09:17:00;;;;;;;3.63;1.58;;;;;;;;;;5091632;28;20245;-85
2021/08/22 09:19:54;;;;;;;4.85;1.90;;;;;;;;;;5074001;28;20210;-84
2021/08/22 09:22:51;;;;;;;5.47;2.00;;;;;;;;;;5077843;28;20278;-84
2021/08/22 09:25:39;;;;;;;3.53;1.73;;;;;;;;;;5051928;28;20195;-84
2021/08/22 09:28:26;;;;;;;5.15;1.95;;;;;;;;;;5076490;28;20287;-85
2021/08/22 09:31:23;;;;;;;3.72;1.40;;;;;;;;;;5082732;28;20292;-84
2021/08/22 09:34:11;;;;;;;3.08;1.70;;;;;;;;;;5097644;28;20256;-84
2021/08/22 09:36:59;;;;;;;4.28;1.60;;;;;;;;;;5097731;28;20230;-84
2021/08/22 09:39:47;;;;;;;3.70;2.08;;;;;;;;;;5097577;28;20714;-84
2021/08/22 09:42:41;;;;;;;3.53;2.15;;;;;;;;;;5077578;28;20277;-84
2021/08/22 09:45:28;;;;;;;4.32;1.90;;;;;;;;;;5077302;28;20235;-84
2021/08/22 09:48:16;;;;;;;6.07;2.13;;;;;;;;;;5077369;28;20286;-84
2021/08/22 09:51:04;;;;;;;3.03;2.03;;;;;;;;;;5055913;28;20208;-84
2021/08/22 09:53:49;;;;;;;3.65;1.80;;;;;;;;;;5075110;28;20230;-84
2021/08/22 09:56:37;;;;;;;3.70;1.70;;;;;;;;;;5055708;28;20235;-84
2021/08/22 09:59:28;;;;;;;4.00;1.98;;;;;;;;;;5056035;28;20624;-84
2021/08/22 10:02:08;;;;;;;4.80;3.25;;;;;;;;;;5006516;28;20233;-84
2021/08/22 10:04:58;;;;;;;5.47;3.35;;;;;;;;;;5033724;28;20220;-84
2021/08/22 10:07:39;;;;;;;5.28;1.60;;;;;;;;;;5034197;28;20616;-84
2021/08/22 10:10:10;;;;;;;3.28;1.50;;;;;;;;;;5033238;28;20231;-84
2021/08/22 10:12:40;;;;;;;4.28;2.15;;;;;;;;;;5015486;28;20200;-85
2021/08/22 10:15:10;;;;;;;2.85;1.50;;;;;;;;;;5023998;28;20312;-85
2021/08/22 10:17:41;;;;;;;2.65;1.40;;;;;;;;;;5013674;28;20351;-84
2021/08/22 10:20:11;;;;;;;3.40;1.85;;;;;;;;;;5012878;28;20284;-84
2021/08/22 10:22:40;;;;;;;4.93;2.42;;;;;;;;;;5012152;28;20240;-85
2021/08/22 10:25:11;;;;;;;3.67;1.70;;;;;;;;;;5011779;28;20598;-84
2021/08/22 10:27:51;;;;;;;2.97;1.50;;;;;;;;;;5012177;28;20197;-84
2021/08/22 10:30:24;;;;;;;3.92;1.80;;;;;;;;;;5011287;28;20880;-85
2021/08/22 10:33:13;;;;;;;2.88;1.50;;;;;;;;;;5011239;28;20649;-85
2021/08/22 10:35:43;;;;;;;2.80;1.48;;;;;;;;;;5011554;28;20713;-84
2021/08/22 10:38:26;;;;;;;3.05;1.55;;;;;;;;;;5012939;28;20294;-85
2021/08/22 10:40:56;;;;;;;3.33;1.52;;;;;;;;;;5053765;28;20203;-84
2021/08/22 10:43:41;;;;;;;3.42;1.80;;;;;;;;;;5056589;28;20283;-84
2021/08/22 10:46:11;;;;;;;3.13;1.52;;;;;;;;;;5073391;28;20199;-84
2021/08/22 10:48:56;;;;;;;3.55;2.60;;;;;;;;;;5073369;28;20241;-84
2021/08/22 10:51:28;;;;;;;3.45;1.80;;;;;;;;;;5073529;28;20305;-85
2021/08/22 10:54:27;;;;;;;4.10;1.58;;;;;;;;;;5073524;28;20226;-85
2021/08/22 10:56:56;;;;;;;2.85;1.60;;;;;;;;;;5050737;28;20275;-85
2021/08/22 10:59:25;;;;;;;2.85;1.30;;;;;;;;;;5065404;28;20282;-84
2021/08/22 11:01:52;;;;;;;2.28;1.20;;;;;;;;;;5066692;28;20314;-84
2021/08/22 11:04:22;;;;;;;2.25;1.20;;;;;;;;;;5070927;28;20286;-85
2021/08/22 11:06:57;;;;;;;3.63;1.33;;;;;;;;;;5070832;28;20234;-84
2021/08/22 11:09:34;;;;;;;2.15;1.20;;;;;;;;;;5070479;28;20640;-85
2021/08/22 11:12:01;;;;;;;3.00;1.30;;;;;;;;;;5071029;28;20230;-84
2021/08/22 11:14:28;;;;;;;3.50;1.25;;;;;;;;;;5064819;28;20222;-84
2021/08/22 11:17:00;;;;;;;3.03;1.25;;;;;;;;;;5050414;28;20227;-84
2021/08/22 11:19:29;;;;;;;2.45;1.20;;;;;;;;;;5050141;28;20690;-84
2021/08/22 11:21:59;;;;;;;2.15;1.00;;;;;;;;;;5050926;28;20223;-84
2021/08/22 11:24:29;;;;;;;4.15;1.30;;;;;;;;;;5050837;28;20289;-84
2021/08/22 11:27:03;;;;;;;2.50;1.50;;;;;;;;;;5050447;28;20198;-84
2021/08/22 11:29:32;;;;;;;3.03;1.33;;;;;;;;;;5050617;28;20218;-84
2021/08/22 11:32:05;;;;;;;2.80;1.55;;;;;;;;;;5068601;28;20840;-84
2021/08/22 11:34:34;;;;;;;3.42;1.50;;;;;;;;;;5072311;28;20282;-84
2021/08/22 11:37:18;;;;;;;3.90;1.60;;;;;;;;;;5072598;28;20298;-84
2021/08/22 11:39:47;;;;;;;2.40;1.50;;;;;;;;;;5072243;28;20843;-84
2021/08/22 11:42:22;;;;;;;2.83;1.40;;;;;;;;;;5072478;28;20195;-84
2021/08/22 11:44:51;;;;;;;3.35;1.17;;;;;;;;;;5072055;28;20232;-84
2021/08/22 11:47:21;;;;;;;3.92;1.33;;;;;;;;;;5072471;28;20332;-84
2021/08/22 11:49:50;;;;;;;2.20;1.27;;;;;;;;;;5072369;28;20195;-84
2021/08/22 11:52:22;;;;;;;2.45;1.52;;;;;;;;;;5082553;28;20321;-84
2021/08/22 11:54:51;;;;;;;2.53;1.20;;;;;;;;;;5074840;28;20244;-84
2021/08/22 11:57:21;;;;;;;2.30;1.45;;;;;;;;;;5089679;28;20309;-84
2021/08/22 12:00:00;;;;;;;2.97;1.40;;;;;;;;;;5092473;28;20232;-84
2021/08/22 12:02:30;;;;;;;3.88;1.38;;;;;;;;;;5080995;28;20715;-84
2021/08/22 12:05:19;;;;;;;4.10;1.42;;;;;;;;;;5091612;28;20229;-85
2021/08/22 12:07:52;;;;;;;2.42;1.38;;;;;;;;;;5076877;28;20203;-84
2021/08/22 12:10:28;;;;;;;3.15;1.40;;;;;;;;;;5076776;28;20285;-84
2021/08/22 12:12:58;;;;;;;2.78;1.50;;;;;;;;;;5093530;28;20254;-84
2021/08/22 12:15:31;;;;;;;1.67;1.10;;;;;;;;;;5093847;28;20209;-84
2021/08/22 12:18:20;;;;;;;2.40;1.10;;;;;;;;;;5093584;28;20238;-84
2021/08/22 12:20:50;;;;;;;2.45;1.17;;;;;;;;;;5092940;28;20187;-84
2021/08/22 12:23:20;;;;;;;3.92;1.30;;;;;;;;;;5053117;28;20718;-84
2021/08/22 12:25:50;;;;;;;2.55;1.20;;;;;;;;;;5053514;28;20180;-83
2021/08/22 12:28:27;;;;;;;1.52;1.08;;;;;;;;;;5053568;28;20278;-84
2021/08/22 12:31:07;;;;;;;3.05;1.33;;;;;;;;;;5052970;28;20642;-84
2021/08/22 12:33:37;;;;;;;3.03;1.20;;;;;;;;;;5053422;28;20274;-84
2021/08/22 12:36:07;;;;;;;3.40;1.40;;;;;;;;;;5053224;28;20199;-84
2021/08/22 12:38:40;;;;;;;2.70;1.30;;;;;;;;;;5052973;28;20250;-84
2021/08/22 12:41:33;;;;;;;2.83;1.38;;;;;;;;;;5067613;28;20269;-84
2021/08/22 12:44:03;;;;;;;2.38;1.20;;;;;;;;;;5078071;28;20558;-85
2021/08/22 12:46:32;;;;;;;2.45;1.15;;;;;;;;;;5092765;28;20226;-84
2021/08/22 12:49:02;;;;;;;2.58;1.10;;;;;;;;;;5092710;28;20230;-84
2021/08/22 12:51:31;;;;;;;3.78;1.35;;;;;;;;;;5093225;28;20356;-84
2021/08/22 12:54:02;;;;;;;3.60;1.00;;;;;;;;;;5091466;28;20642;-84
2021/08/22 12:56:31;;;;;;;1.75;1.10;;;;;;;;;;5096155;28;20372;-84
2021/08/22 12:59:00;;;;;;;2.65;1.10;;;;;;;;;;5096467;28;20252;-85
2021/08/22 13:01:29;;;;;;;4.43;1.40;;;;;;;;;;5083612;28;20559;-83
2021/08/22 13:03:59;;;;;;;1.85;1.20;;;;;;;;;;5080655;28;20677;-84
2021/08/22 13:06:28;;;;;;;2.10;1.00;;;;;;;;;;5097305;28;20222;-84
2021/08/22 13:08:57;;;;;;;2.75;1.05;;;;;;;;;;5097853;28;20237;-84
2021/08/22 13:11:28;;;;;;;2.95;1.00;;;;;;;;;;5098062;28;20243;-84
2021/08/22 13:13:56;;;;;;;2.10;1.00;;;;;;;;;;5097379;28;20644;-84
2021/08/22 13:16:25;;;;;;;3.28;1.15;;;;;;;;;;5093472;28;20294;-84
2021/08/22 13:18:54;;;;;;;1.55;0.80;;;;;;;;;;5076684;28;20234;-85
2021/08/22 13:21:23;;;;;;;2.53;1.10;;;;;;;;;;5076609;28;20282;-85
2021/08/22 13:23:52;;;;;;;2.45;0.80;;;;;;;;;;5076732;28;20195;-84
2021/08/22 13:26:21;;;;;;;3.60;1.00;;;;;;;;;;5078084;28;20290;-84
2021/08/22 13:28:52;;;;;;;2.17;1.00;;;;;;;;;;5077460;28;20226;-84
2021/08/22 13:31:22;;;;;;;2.58;1.10;;;;;;;;;;5088908;28;20653;-84
2021/08/22 13:33:54;;;;;;;2.83;1.00;;;;;;;;;;5097645;28;20360;-84
2021/08/22 13:36:22;;;;;;;2.72;0.80;;;;;;;;;;5096771;28;20201;-84
2021/08/22 13:38:50;;;;;;;1.88;0.80;;;;;;;;;;5096074;28;20312;-84
2021/08/22 13:41:18;;;;;;;2.53;0.85;;;;;;;;;;5089257;28;20686;-84
2021/08/22 13:43:45;;;;;;;1.45;0.90;;;;;;;;;;5095492;28;20666;-84
2021/08/22 13:46:14;;;;;;;2.17;0.90;;;;;;;;;;5096250;28;20579;-84
2021/08/22 13:48:41;;;;;;;2.00;0.95;;;;;;;;;;5079236;28;20249;-84
2021/08/22 13:51:08;;;;;;;2.60;1.00;;;;;;;;;;5077365;28;20290;-84
2021/08/22 13:53:36;;;;;;;1.90;0.90;;;;;;;;;;5077029;28;20314;-84
2021/08/22 13:56:03;;;;;;;1.58;0.90;;;;;;;;;;5090451;28;20253;-84
2021/08/22 13:58:30;;;;;;;3.13;0.90;;;;;;;;;;5095375;28;20286;-84
2021/08/22 14:00:57;;;;;;;3.03;0.90;;;;;;;;;;5095959;28;20229;-84
2021/08/22 14:03:26;;;;;;;1.85;0.82;;;;;;;;;;5096356;28;20253;-84
2021/08/22 14:05:54;;;;;;;1.95;0.80;;;;;;;;;;5096111;28;20695;-84
2021/08/22 14:08:21;;;;;;;1.83;0.90;;;;;;;;;;5096804;28;20186;-84
2021/08/22 14:10:49;;;;;;;2.88;0.70;;;;;;;;;;5095199;28;20198;-84
2021/08/22 14:13:16;;;;;;;4.15;1.17;;;;;;;;;;5096410;28;20313;-84
2021/08/22 14:15:43;;;;;;;1.75;0.77;;;;;;;;;;5096219;28;20685;-84
2021/08/22 14:18:10;;;;;;;3.22;0.82;;;;;;;;;;5097241;28;20222;-84
2021/08/22 14:20:39;;;;;;;3.35;1.02;;;;;;;;;;5096792;28;20190;-84
2021/08/22 14:23:06;;;;;;;3.50;1.00;;;;;;;;;;5096396;28;20229;-84
2021/08/22 14:25:33;;;;;;;2.33;0.98;;;;;;;;;;5096585;28;20678;-85
2021/08/22 14:28:00;;;;;;;2.72;0.93;;;;;;;;;;5096248;28;20290;-84
2021/08/22 14:30:28;;;;;;;2.85;1.10;;;;;;;;;;5096526;28;20614;-84
2021/08/22 14:32:55;;;;;;;1.88;0.95;;;;;;;;;;5081030;28;20313;-83
2021/08/22 14:35:22;;;;;;;2.05;0.98;;;;;;;;;;5093887;28;20654;-84
2021/08/22 14:37:51;;;;;;;1.23;0.80;;;;;;;;;;5096342;28;20689;-84
2021/08/22 14:40:18;;;;;;;4.45;1.10;;;;;;;;;;5077295;28;20238;-83
2021/08/22 14:42:45;;;;;;;2.08;1.05;;;;;;;;;;5075056;28;20574;-84
2021/08/22 14:45:13;;;;;;;2.58;1.17;;;;;;;;;;5074881;28;20281;-84